Terminal Aerodrome Forecast
Issued by NWS Tampa Bay Area, FL

Home | Current Version | Previous Version | Text Only | Print | Product List | Glossary On
Versions: 1 2 3 4 5 6 7 8 9 10 11 12
225
FTUS42 KTBW 272323
TAFFMY
TAF
KFMY 272323Z 2800/2824 06005KT P6SM FEW060 SCT250
     FM280200 VRB03KT P6SM SKC
     FM280800 00000KT 6SM BR FEW015
     FM281300 09003KT P6SM FEW035
     FM281900 27008KT P6SM SCT060=

USA.gov is the U.S. government's official web portal to all federal, state and local government web resources and services.